Time;durP1;ratioP1;P1;durP2;ratioP2;P2;SDS_P1;SDS_P2;PMS_P1;PMS_P2;Temp;Humidity;BMP_temperature;BMP_pressure;BME280_temperature;BME280_humidity;BME280_pressure;Samples;Min_cycle;Max_cycle;Signal;HPM_P1;HPM_P2
2023/04/28 03:03:11;;;;;;;1.50;0.40;;;15.20;68.50;;;;;;5009775;23;92671;-74
2023/04/28 03:05:37;;;;;;;1.88;0.15;;;15.30;70.30;;;;;;4898778;28;92273;-74
2023/04/28 03:08:03;;;;;;;2.10;0.13;;;15.30;72.20;;;;;;4880882;28;97574;-77
2023/04/28 03:10:29;;;;;;;1.88;0.17;;;15.30;72.90;;;;;;4895228;28;94238;-76
2023/04/28 03:12:55;;;;;;;0.57;0.10;;;15.30;74.20;;;;;;4899086;28;92279;-76
2023/04/28 03:15:20;;;;;;;0.85;0.10;;;15.30;74.00;;;;;;4897737;28;92470;-74
2023/04/28 03:17:46;;;;;;;2.55;0.30;;;15.30;74.60;;;;;;4898825;28;92543;-77
2023/04/28 03:20:12;;;;;;;1.50;0.20;;;15.30;76.00;;;;;;4898313;28;93355;-76
2023/04/28 03:22:37;;;;;;;1.27;0.40;;;15.10;76.70;;;;;;4901646;28;92386;-77
2023/04/28 03:25:04;;;;;;;3.50;0.70;;;15.00;75.90;;;;;;4918543;28;91798;-76
2023/04/28 03:27:30;;;;;;;3.10;0.80;;;14.90;76.90;;;;;;4898126;28;92622;-74
2023/04/28 03:29:56;;;;;;;6.13;1.33;;;14.80;77.60;;;;;;4898155;28;92930;-76
2023/04/28 03:32:22;;;;;;;3.17;0.95;;;14.70;79.10;;;;;;4897589;28;93455;-74
2023/04/28 03:34:47;;;;;;;5.43;1.30;;;14.60;78.40;;;;;;4898892;28;92179;-72
2023/04/28 03:37:13;;;;;;;3.80;1.13;;;14.50;79.90;;;;;;4898324;28;93274;-75
2023/04/28 03:39:38;;;;;;;2.83;0.93;;;14.20;81.40;;;;;;4898471;28;92842;-75
2023/04/28 03:42:04;;;;;;;9.02;0.98;;;14.10;82.10;;;;;;4897277;28;92527;-77
2023/04/28 03:44:30;;;;;;;3.30;0.82;;;13.80;83.20;;;;;;4887889;28;92447;-78
2023/04/28 03:46:56;;;;;;;3.63;0.90;;;13.60;84.20;;;;;;4879149;28;94110;-76
2023/04/28 03:49:22;;;;;;;4.30;0.85;;;13.40;86.20;;;;;;4895277;28;92785;-77
2023/04/28 03:51:48;;;;;;;3.28;0.70;;;13.20;87.60;;;;;;4898716;28;92483;-74
2023/04/28 03:54:14;;;;;;;3.45;1.10;;;13.10;88.00;;;;;;4903379;28;92799;-74
2023/04/28 03:56:40;;;;;;;4.75;0.90;;;12.90;88.90;;;;;;4891515;28;93615;-77
2023/04/28 03:59:06;;;;;;;2.75;0.93;;;12.80;90.20;;;;;;4882759;28;93513;-76
2023/04/28 04:01:32;;;;;;;4.38;1.25;;;12.80;90.40;;;;;;4881220;28;92391;-75
2023/04/28 04:03:57;;;;;;;2.72;1.08;;;12.70;90.80;;;;;;4874691;28;94543;-75
2023/04/28 04:06:23;;;;;;;5.63;1.20;;;12.70;90.80;;;;;;4875557;28;93751;-75
2023/04/28 04:08:49;;;;;;;4.13;1.38;;;12.70;91.20;;;;;;4876021;28;93291;-74
2023/04/28 04:11:15;;;;;;;3.58;1.05;;;12.60;91.50;;;;;;4877939;28;92402;-74
2023/04/28 04:13:41;;;;;;;4.40;1.10;;;12.60;91.90;;;;;;4874694;28;91558;-74
2023/04/28 04:16:07;;;;;;;3.80;0.98;;;12.60;92.30;;;;;;4878454;28;93615;-75
2023/04/28 04:18:32;;;;;;;5.20;0.85;;;12.70;92.60;;;;;;4877754;28;92860;-75
2023/04/28 04:20:58;;;;;;;3.20;0.90;;;12.80;92.10;;;;;;4878400;28;93158;-75
2023/04/28 04:23:24;;;;;;;3.78;0.95;;;12.90;92.40;;;;;;4879705;28;92074;-74
2023/04/28 04:25:50;;;;;;;3.45;1.15;;;12.90;92.10;;;;;;4878332;28;93080;-75
2023/04/28 04:28:15;;;;;;;3.75;1.00;;;12.90;92.70;;;;;;4878028;28;92564;-74
2023/04/28 04:30:41;;;;;;;3.83;1.10;;;13.00;92.20;;;;;;4865874;28;92070;-75
2023/04/28 04:33:07;;;;;;;2.65;0.80;;;13.00;93.30;;;;;;4878469;28;92438;-75
2023/04/28 04:35:33;;;;;;;4.93;1.10;;;13.10;93.10;;;;;;4870961;28;95720;-75
2023/04/28 04:38:00;;;;;;;4.88;1.10;;;13.20;93.30;;;;;;4878081;28;92835;-75
2023/04/28 04:40:26;;;;;;;10.07;2.20;;;13.20;93.60;;;;;;4876825;28;92837;-74
2023/04/28 04:42:51;;;;;;;9.15;1.45;;;13.10;94.10;;;;;;4879700;28;92394;-77
2023/04/28 04:45:17;;;;;;;8.18;1.50;;;13.00;94.80;;;;;;4877745;28;95108;-74
2023/04/28 04:47:43;;;;;;;9.13;2.33;;;12.90;95.30;;;;;;4877082;28;93709;-76
2023/04/28 04:50:10;;;;;;;6.68;1.67;;;12.80;95.80;;;;;;4872502;28;92452;-76
2023/04/28 04:52:36;;;;;;;9.65;1.73;;;12.70;96.40;;;;;;4858200;28;92989;-76
2023/04/28 04:55:02;;;;;;;9.25;2.03;;;12.70;97.20;;;;;;4874371;28;93100;-75
2023/04/28 04:57:27;;;;;;;7.32;1.70;;;12.80;97.50;;;;;;4877621;28;92782;-75
2023/04/28 04:59:53;;;;;;;7.55;1.35;;;12.90;97.90;;;;;;4881719;28;92224;-77
2023/04/28 05:02:19;;;;;;;6.85;1.65;;;12.90;97.20;;;;;;4881121;28;91661;-76
2023/04/28 05:04:44;;;;;;;8.45;1.45;;;12.90;97.00;;;;;;4884882;28;93179;-74
2023/04/28 05:07:10;;;;;;;8.70;1.90;;;13.00;96.80;;;;;;4880698;28;93660;-75
2023/04/28 05:09:36;;;;;;;6.50;2.13;;;13.00;97.20;;;;;;4871918;28;93328;-74
2023/04/28 05:12:02;;;;;;;7.45;2.13;;;13.00;98.00;;;;;;4882929;28;94380;-74
2023/04/28 05:14:27;;;;;;;8.57;2.30;;;12.80;99.20;;;;;;4881191;28;92948;-75
2023/04/28 05:16:53;;;;;;;7.95;2.42;;;12.80;99.40;;;;;;4881341;28;93719;-75
2023/04/28 05:19:19;;;;;;;7.05;1.98;;;12.80;99.80;;;;;;4880080;28;92619;-78
2023/04/28 05:21:46;;;;;;;7.57;1.65;;;12.80;99.90;;;;;;4881457;28;92513;-75
2023/04/28 05:24:15;;;;;;;8.63;2.25;;;12.80;99.90;;;;;;4878150;28;92816;-73
2023/04/28 05:26:41;;;;;;;6.80;2.33;;;12.80;99.90;;;;;;4874436;28;92890;-73
2023/04/28 05:29:07;;;;;;;6.82;2.08;;;12.80;99.90;;;;;;4881345;28;92110;-76
2023/04/28 05:31:32;;;;;;;6.72;1.88;;;12.70;99.90;;;;;;4881131;28;92941;-75
2023/04/28 05:33:58;;;;;;;7.10;1.88;;;12.70;99.90;;;;;;4877542;28;94465;-74
2023/04/28 05:36:24;;;;;;;4.03;1.75;;;12.60;99.90;;;;;;4878441;28;93895;-74
2023/04/28 05:38:50;;;;;;;7.75;1.63;;;12.50;99.90;;;;;;4862379;28;94156;-75
2023/04/28 05:41:15;;;;;;;7.88;2.42;;;12.50;99.90;;;;;;4868994;28;94228;-72
2023/04/28 05:43:41;;;;;;;10.05;1.40;;;12.40;99.90;;;;;;4870460;28;94617;-75
2023/04/28 05:46:07;;;;;;;6.00;1.30;;;12.40;99.90;;;;;;4868499;28;93269;-75
2023/04/28 05:48:32;;;;;;;3.55;0.82;;;12.30;99.90;;;;;;4861652;28;92568;-75
2023/04/28 05:50:58;;;;;;;3.65;1.00;;;12.30;99.90;;;;;;4877325;28;93832;-72
2023/04/28 05:53:24;;;;;;;3.83;0.90;;;12.30;99.90;;;;;;4868266;28;92740;-73
2023/04/28 05:55:50;;;;;;;3.35;0.43;;;12.20;99.90;;;;;;4874970;28;93940;-74
2023/04/28 05:58:16;;;;;;;2.28;0.40;;;12.20;99.90;;;;;;4855366;28;93447;-73
2023/04/28 06:00:41;;;;;;;4.47;0.43;;;12.30;99.90;;;;;;4870693;28;93056;-75
2023/04/28 06:03:09;;;;;;;3.70;0.38;;;12.30;99.90;;;;;;4868684;28;93852;-77
2023/04/28 06:05:35;;;;;;;4.22;0.90;;;12.30;99.90;;;;;;4862006;28;96963;-72
2023/04/28 06:08:02;;;;;;;6.28;0.35;;;12.20;99.90;;;;;;4882958;28;92228;-74
2023/04/28 06:10:28;;;;;;;4.50;0.40;;;12.20;99.90;;;;;;4870244;28;92684;-73
2023/04/28 06:12:54;;;;;;;2.30;0.40;;;12.20;99.90;;;;;;4868385;28;92505;-73
2023/04/28 06:15:19;;;;;;;3.13;0.40;;;12.20;99.90;;;;;;4868598;28;92890;-75
2023/04/28 06:17:47;;;;;;;5.35;0.40;;;12.10;99.90;;;;;;4866161;28;92826;-73
2023/04/28 06:20:13;;;;;;;3.55;0.38;;;12.20;99.90;;;;;;4871484;28;94006;-75
2023/04/28 06:22:40;;;;;;;4.28;0.30;;;12.10;99.90;;;;;;4866434;28;94050;-77
2023/04/28 06:25:06;;;;;;;6.05;0.30;;;12.20;99.90;;;;;;4848435;28;94567;-75
2023/04/28 06:27:32;;;;;;;13.35;0.65;;;12.20;99.90;;;;;;4875253;28;92543;-73
2023/04/28 06:29:58;;;;;;;2.28;0.20;;;12.20;99.90;;;;;;4869297;28;92725;-74
2023/04/28 06:32:24;;;;;;;4.43;0.20;;;12.20;99.90;;;;;;4871025;28;93173;-74
2023/04/28 06:34:50;;;;;;;1.48;0.20;;;12.20;99.90;;;;;;4862566;28;93686;-73
2023/04/28 06:37:15;;;;;;;9.30;0.20;;;12.20;99.90;;;;;;4869270;28;92544;-74
2023/04/28 06:39:41;;;;;;;2.35;0.40;;;12.20;99.90;;;;;;4868622;28;91804;-72
2023/04/28 06:42:07;;;;;;;1.85;0.30;;;12.20;99.90;;;;;;4865058;28;94430;-73
2023/04/28 06:44:33;;;;;;;2.60;0.43;;;12.20;99.90;;;;;;4867403;28;94771;-73
2023/04/28 06:46:58;;;;;;;4.00;0.90;;;12.10;99.90;;;;;;4878641;28;93831;-71
2023/04/28 06:49:24;;;;;;;1.15;0.25;;;12.10;99.90;;;;;;4880123;28;92494;-73
2023/04/28 06:51:50;;;;;;;2.13;0.40;;;12.10;99.90;;;;;;4877785;28;93731;-72
2023/04/28 06:54:17;;;;;;;3.10;0.40;;;12.10;99.90;;;;;;4879091;28;94440;-73
2023/04/28 06:56:42;;;;;;;4.45;0.90;;;12.10;99.90;;;;;;4878429;28;93007;-73
2023/04/28 06:59:08;;;;;;;4.13;0.50;;;12.10;99.90;;;;;;4880146;28;92396;-72
2023/04/28 07:01:34;;;;;;;5.35;0.50;;;12.10;99.90;;;;;;4882214;28;94590;-72
2023/04/28 07:04:00;;;;;;;2.72;0.63;;;12.10;99.90;;;;;;4877926;28;94229;-72
2023/04/28 07:06:26;;;;;;;7.03;0.82;;;12.10;99.90;;;;;;4871120;28;92442;-73
2023/04/28 07:08:52;;;;;;;8.07;3.20;;;12.00;99.90;;;;;;4878149;28;92523;-73
2023/04/28 07:11:18;;;;;;;8.05;0.63;;;12.00;99.90;;;;;;4862834;28;94779;-72
2023/04/28 07:13:48;;;;;;;2.33;0.40;;;11.90;99.90;;;;;;4877124;28;94233;-74
2023/04/28 07:16:14;;;;;;;1.92;0.40;;;11.90;99.90;;;;;;4876916;28;92841;-73
2023/04/28 07:18:40;;;;;;;2.15;0.30;;;11.90;99.90;;;;;;4884036;28;92278;-74
2023/04/28 07:21:05;;;;;;;3.20;0.30;;;11.90;99.90;;;;;;4870943;28;93259;-74
2023/04/28 07:23:31;;;;;;;3.20;0.40;;;11.90;99.90;;;;;;4886872;28;92705;-72
2023/04/28 07:25:57;;;;;;;2.65;0.20;;;12.00;99.90;;;;;;4872254;28;92559;-74
2023/04/28 07:28:23;;;;;;;2.40;0.50;;;12.00;99.90;;;;;;4880289;28;92804;-73
2023/04/28 07:30:49;;;;;;;1.23;0.40;;;12.00;99.90;;;;;;4864089;28;93873;-74
2023/04/28 07:33:14;;;;;;;1.70;0.20;;;12.00;99.90;;;;;;4875233;28;92882;-72
2023/04/28 07:35:40;;;;;;;1.38;0.20;;;12.00;99.90;;;;;;4880357;28;93917;-72
2023/04/28 07:38:06;;;;;;;1.67;0.30;;;12.00;99.90;;;;;;4876910;28;94830;-73
2023/04/28 07:40:31;;;;;;;1.08;0.25;;;12.00;99.90;;;;;;4871274;28;93410;-72
2023/04/28 07:42:57;;;;;;;4.53;0.28;;;11.90;99.90;;;;;;4878661;28;92367;-75
2023/04/28 07:45:23;;;;;;;1.30;0.28;;;11.90;99.90;;;;;;4880742;28;92112;-73
2023/04/28 07:47:48;;;;;;;2.08;0.40;;;11.90;99.90;;;;;;4873607;28;93634;-72
2023/04/28 07:50:15;;;;;;;1.38;0.20;;;11.90;99.90;;;;;;4886718;28;93095;-75
2023/04/28 07:52:41;;;;;;;3.58;0.38;;;12.00;99.90;;;;;;4872561;28;92338;-74
2023/04/28 07:55:07;;;;;;;2.03;0.20;;;12.00;99.90;;;;;;4872134;28;92881;-72
2023/04/28 07:57:32;;;;;;;1.95;0.20;;;12.00;99.90;;;;;;4876187;28;92632;-75
2023/04/28 07:59:58;;;;;;;1.63;0.30;;;12.10;99.90;;;;;;4864264;28;94913;-74
2023/04/28 08:02:24;;;;;;;2.75;0.40;;;12.10;99.90;;;;;;4870183;28;93311;-73
2023/04/28 08:04:50;;;;;;;1.20;0.10;;;12.10;99.90;;;;;;4873587;28;92674;-73
2023/04/28 08:07:16;;;;;;;1.05;0.10;;;12.10;99.90;;;;;;4871238;28;94048;-73
2023/04/28 08:09:45;;;;;;;4.25;0.20;;;12.00;99.90;;;;;;4876700;28;93245;-72
2023/04/28 08:12:12;;;;;;;3.35;0.20;;;12.10;99.90;;;;;;4876820;28;92979;-74
2023/04/28 08:14:37;;;;;;;1.17;0.17;;;12.10;99.90;;;;;;4874465;28;92654;-73
2023/04/28 08:17:03;;;;;;;1.45;0.13;;;12.10;99.90;;;;;;4873815;28;91723;-73
2023/04/28 08:19:29;;;;;;;1.42;0.32;;;12.10;99.90;;;;;;4875375;28;93610;-73
2023/04/28 08:21:54;;;;;;;3.75;0.20;;;12.20;99.90;;;;;;4873653;28;92617;-73
2023/04/28 08:24:20;;;;;;;1.80;0.20;;;12.10;99.90;;;;;;4875887;28;93575;-74
2023/04/28 08:26:46;;;;;;;1.23;0.20;;;12.20;99.90;;;;;;4866601;28;92507;-73
2023/04/28 08:29:11;;;;;;;1.23;0.20;;;12.10;99.90;;;;;;4877493;28;93251;-71
2023/04/28 08:31:37;;;;;;;1.38;0.20;;;12.20;99.90;;;;;;4875039;28;93168;-72
2023/04/28 08:34:03;;;;;;;0.98;0.10;;;12.20;99.90;;;;;;4878838;28;92990;-72
2023/04/28 08:36:31;;;;;;;3.42;0.20;;;12.20;99.90;;;;;;4873130;28;92522;-72
2023/04/28 08:38:58;;;;;;;1.95;0.30;;;12.20;99.90;;;;;;4872238;28;95084;-74
2023/04/28 08:41:26;;;;;;;0.98;0.10;;;12.20;99.90;;;;;;4863984;28;93875;-72
2023/04/28 08:43:53;;;;;;;1.73;0.20;;;12.30;99.90;;;;;;4873711;28;92617;-72
2023/04/28 08:46:21;;;;;;;1.23;0.20;;;12.30;99.90;;;;;;4874731;28;93159;-71
2023/04/28 08:48:48;;;;;;;1.17;0.15;;;12.30;99.90;;;;;;4871886;28;94364;-74
2023/04/28 08:51:27;;;;;;;1.95;0.20;;;12.40;99.90;;;;;;4856473;28;95740;-70
2023/04/28 08:53:58;;;;;;;1.33;0.30;;;12.40;99.90;;;;;;4873821;28;92862;-73
2023/04/28 08:56:26;;;;;;;3.28;0.20;;;12.40;99.90;;;;;;4872950;28;92887;-71
2023/04/28 08:58:53;;;;;;;2.20;0.20;;;12.50;99.90;;;;;;4873859;28;93970;-70
2023/04/28 09:01:19;;;;;;;1.70;0.20;;;12.40;99.90;;;;;;4871667;28;92960;-73
2023/04/28 09:03:46;;;;;;;0.73;0.20;;;12.50;99.90;;;;;;4862882;28;94326;-71
2023/04/28 09:06:12;;;;;;;1.50;0.20;;;12.50;99.90;;;;;;4867789;28;93404;-72
2023/04/28 09:08:37;;;;;;;1.73;0.17;;;12.50;99.90;;;;;;4861133;28;93028;-73
2023/04/28 09:11:12;;;;;;;1.05;0.20;;;12.50;99.90;;;;;;4860565;28;93159;-71
2023/04/28 09:13:39;;;;;;;1.00;0.32;;;12.50;99.90;;;;;;4873636;28;93874;-71
2023/04/28 09:16:05;;;;;;;1.50;0.13;;;12.50;99.90;;;;;;4871544;28;92439;-71
2023/04/28 09:18:32;;;;;;;0.93;0.10;;;12.40;99.90;;;;;;4881254;28;93350;-72
2023/04/28 09:21:08;;;;;;;1.35;0.20;;;12.50;99.90;;;;;;4874195;28;93251;-73
2023/04/28 09:23:56;;;;;;;1.73;0.10;;;12.50;99.90;;;;;;4874797;28;92207;-74
2023/04/28 09:26:22;;;;;;;2.10;0.20;;;12.60;99.90;;;;;;4875560;28;92470;-73
2023/04/28 09:28:48;;;;;;;0.73;0.10;;;12.60;99.90;;;;;;4856304;28;93604;-73
2023/04/28 09:31:39;;;;;;;3.53;0.17;;;12.60;99.90;;;;;;4878880;28;93428;-74
2023/04/28 09:34:06;;;;;;;1.98;0.20;;;12.60;99.90;;;;;;4878091;28;92643;-73
2023/04/28 09:36:32;;;;;;;1.33;0.10;;;12.70;99.90;;;;;;4877307;28;92570;-73
2023/04/28 09:38:58;;;;;;;1.48;0.20;;;12.70;99.90;;;;;;4877095;28;94712;-71
2023/04/28 09:41:36;;;;;;;3.33;0.30;;;12.80;99.90;;;;;;4880673;28;93851;-71
2023/04/28 09:44:13;;;;;;;1.90;0.65;;;12.90;99.90;;;;;;4872863;28;93240;-70
2023/04/28 09:46:39;;;;;;;1.35;0.20;;;13.00;99.90;;;;;;4864708;28;94262;-70
2023/04/28 09:49:05;;;;;;;1.17;0.10;;;13.00;99.90;;;;;;4875910;28;92744;-70
2023/04/28 09:51:31;;;;;;;1.17;0.20;;;13.10;99.90;;;;;;4880447;28;92851;-71
2023/04/28 09:54:00;;;;;;;4.00;0.35;;;13.20;99.90;;;;;;4866927;28;92043;-71
2023/04/28 09:56:31;;;;;;;1.42;0.10;;;13.30;99.60;;;;;;4883002;28;92655;-71
2023/04/28 09:59:00;;;;;;;0.82;0.10;;;13.30;99.50;;;;;;4874579;28;93727;-70
2023/04/28 10:01:39;;;;;;;1.48;0.15;;;13.30;98.80;;;;;;4885858;28;93428;-71
2023/04/28 10:04:06;;;;;;;2.80;0.55;;;13.30;99.30;;;;;;4883615;28;93099;-71
2023/04/28 10:06:36;;;;;;;0.90;0.13;;;13.30;98.50;;;;;;4888565;28;92703;-70
2023/04/28 10:09:02;;;;;;;1.02;0.10;;;13.20;98.40;;;;;;4883899;28;93934;-70
2023/04/28 10:11:29;;;;;;;1.02;0.15;;;13.20;98.80;;;;;;4873939;28;93623;-71
2023/04/28 10:13:55;;;;;;;0.80;0.10;;;13.20;99.00;;;;;;4863948;28;95058;-71
2023/04/28 10:16:22;;;;;;;1.75;0.10;;;13.30;98.40;;;;;;4857831;28;92937;-70
2023/04/28 10:18:48;;;;;;;1.00;0.10;;;13.30;98.80;;;;;;4874483;28;94189;-70
2023/04/28 10:21:17;;;;;;;1.42;0.20;;;13.30;98.90;;;;;;4867601;28;95941;-70
2023/04/28 10:24:17;;;;;;;4.00;0.20;;;13.30;99.50;;;;;;4868559;28;94058;-71
2023/04/28 10:27:05;;;;;;;1.55;0.20;;;13.30;99.40;;;;;;4863752;28;93664;-70
2023/04/28 10:29:32;;;;;;;1.73;0.20;;;13.30;99.80;;;;;;4872187;28;95009;-70
2023/04/28 10:32:17;;;;;;;3.67;0.47;;;13.30;98.40;;;;;;4862587;28;95299;-70
2023/04/28 10:34:43;;;;;;;1.27;0.20;;;13.20;98.90;;;;;;4872728;28;94144;-71
2023/04/28 10:37:09;;;;;;;1.52;0.10;;;13.20;99.00;;;;;;4873733;28;92543;-71
2023/04/28 10:39:35;;;;;;;2.70;0.30;;;13.30;99.00;;;;;;4872159;28;92602;-71
2023/04/28 10:42:01;;;;;;;1.67;0.22;;;13.30;99.40;;;;;;4866051;28;93936;-71
2023/04/28 10:44:27;;;;;;;1.83;0.32;;;13.40;99.60;;;;;;4867455;28;92656;-71
2023/04/28 10:47:08;;;;;;;2.33;0.40;;;13.40;99.30;;;;;;4879572;28;91883;-71
2023/04/28 10:50:00;;;;;;;5.65;0.52;;;13.40;98.90;;;;;;4869054;28;93847;-70
2023/04/28 10:52:38;;;;;;;1.50;0.10;;;13.40;99.30;;;;;;4865100;28;93165;-71
2023/04/28 10:55:35;;;;;;;0.95;0.20;;;13.50;98.50;;;;;;4871840;28;93944;-71
2023/04/28 10:58:24;;;;;;;4.43;0.70;;;13.50;98.50;;;;;;4867077;28;92838;-71
2023/04/28 11:00:52;;;;;;;1.63;0.10;;;13.50;98.40;;;;;;4856073;28;92932;-70
2023/04/28 11:03:45;;;;;;;1.08;0.20;;;13.40;98.80;;;;;;4870406;28;94181;-70
2023/04/28 11:06:40;;;;;;;1.35;0.13;;;13.50;98.70;;;;;;4857892;28;94048;-71
2023/04/28 11:09:16;;;;;;;1.75;0.30;;;13.50;98.10;;;;;;4870815;28;93942;-72
2023/04/28 11:12:00;;;;;;;1.10;0.30;;;13.60;98.00;;;;;;4871654;28;93735;-70
2023/04/28 11:14:28;;;;;;;3.38;0.40;;;13.70;97.40;;;;;;4867938;28;92215;-72
2023/04/28 11:16:58;;;;;;;3.88;0.20;;;13.80;97.50;;;;;;4871316;28;92505;-73
2023/04/28 11:19:29;;;;;;;1.10;0.20;;;13.90;97.40;;;;;;4872200;28;92592;-73
2023/04/28 11:21:57;;;;;;;1.27;0.15;;;14.00;97.70;;;;;;4869240;28;95627;-72
2023/04/28 11:24:27;;;;;;;1.30;0.25;;;13.90;97.60;;;;;;4864985;28;93544;-77
2023/04/28 11:26:55;;;;;;;0.80;0.10;;;13.80;98.00;;;;;;4866612;28;92593;-69
2023/04/28 11:29:38;;;;;;;2.42;0.20;;;13.70;97.90;;;;;;4867998;28;93766;-69
2023/04/28 11:32:05;;;;;;;2.25;0.20;;;13.90;98.10;;;;;;4861227;28;93153;-69
2023/04/28 11:34:31;;;;;;;3.05;0.63;;;13.90;98.10;;;;;;4860885;28;92635;-70
2023/04/28 11:36:57;;;;;;;1.77;0.22;;;13.90;98.30;;;;;;4862338;28;92481;-74
2023/04/28 11:39:30;;;;;;;1.63;0.20;;;13.80;98.80;;;;;;4866861;28;92710;-76
2023/04/28 11:41:58;;;;;;;1.02;0.10;;;13.80;98.30;;;;;;4866938;28;95588;-73
2023/04/28 11:44:26;;;;;;;0.90;0.20;;;13.80;98.40;;;;;;4865735;28;92365;-72
2023/04/28 11:46:59;;;;;;;1.85;0.20;;;13.90;98.50;;;;;;4875322;28;93532;-73
2023/04/28 11:49:45;;;;;;;2.03;0.15;;;13.90;98.00;;;;;;4881666;28;94373;-73
2023/04/28 11:52:11;;;;;;;1.80;0.30;;;14.00;97.40;;;;;;4872757;28;92732;-72
2023/04/28 11:54:37;;;;;;;1.67;0.20;;;14.10;97.90;;;;;;4882571;28;93978;-72
2023/04/28 11:57:04;;;;;;;3.03;0.20;;;14.20;97.50;;;;;;4872854;28;92693;-72
2023/04/28 11:59:34;;;;;;;4.15;0.20;;;14.50;96.90;;;;;;4875527;28;92256;-72
2023/04/28 12:02:05;;;;;;;1.35;0.25;;;14.70;95.70;;;;;;4866530;28;95206;-74
2023/04/28 12:04:42;;;;;;;1.35;0.30;;;14.90;96.00;;;;;;4876127;28;92637;-75
2023/04/28 12:07:16;;;;;;;1.00;0.22;;;15.10;94.60;;;;;;4872298;28;93760;-73
2023/04/28 12:09:43;;;;;;;1.55;0.20;;;15.10;94.20;;;;;;4871653;28;93998;-73
2023/04/28 12:12:14;;;;;;;1.90;0.28;;;15.10;94.20;;;;;;4870038;28;93836;-72
2023/04/28 12:14:58;;;;;;;1.95;0.20;;;15.30;94.00;;;;;;4872435;28;94312;-74
2023/04/28 12:17:41;;;;;;;1.60;0.20;;;15.40;94.30;;;;;;4870571;28;93099;-74
2023/04/28 12:20:09;;;;;;;1.80;0.40;;;15.60;93.20;;;;;;4879123;28;92773;-73
2023/04/28 12:22:46;;;;;;;1.15;0.25;;;15.60;92.80;;;;;;4866803;28;95925;-73
2023/04/28 12:25:15;;;;;;;2.22;0.40;;;15.60;92.70;;;;;;4871856;28;92365;-71
2023/04/28 12:27:57;;;;;;;9.40;0.90;;;15.60;91.80;;;;;;4878147;28;92319;-71
2023/04/28 12:30:23;;;;;;;1.23;0.20;;;15.60;92.20;;;;;;4878281;28;91848;-71
2023/04/28 12:32:50;;;;;;;1.48;0.10;;;15.70;92.10;;;;;;4874346;28;93566;-70
2023/04/28 12:35:16;;;;;;;3.47;0.35;;;15.80;91.50;;;;;;4871842;28;94324;-71
2023/04/28 12:37:43;;;;;;;3.28;0.20;;;15.90;91.50;;;;;;4876871;28;93343;-70
2023/04/28 12:40:09;;;;;;;2.85;0.30;;;15.90;91.70;;;;;;4876537;28;93996;-72
2023/04/28 12:42:35;;;;;;;1.13;0.30;;;15.80;90.80;;;;;;4880143;28;92778;-73
2023/04/28 12:45:01;;;;;;;1.13;0.20;;;15.90;90.80;;;;;;4872624;28;93946;-72
2023/04/28 12:47:27;;;;;;;1.60;0.20;;;16.00;91.10;;;;;;4874970;28;92364;-70
2023/04/28 12:49:52;;;;;;;1.13;0.28;;;16.30;90.30;;;;;;4875349;28;92494;-72
2023/04/28 12:52:21;;;;;;;4.20;0.30;;;16.50;90.00;;;;;;4873093;28;92811;-72
2023/04/28 12:54:47;;;;;;;1.30;0.28;;;16.80;88.70;;;;;;4872636;28;93371;-71
2023/04/28 12:57:14;;;;;;;1.40;0.40;;;16.90;88.20;;;;;;4872870;28;92440;-72
2023/04/28 12:59:40;;;;;;;2.75;0.30;;;17.10;85.20;;;;;;4872585;28;92605;-72
2023/04/28 13:02:06;;;;;;;1.10;0.30;;;17.20;85.60;;;;;;4874041;28;94351;-72
2023/04/28 13:04:32;;;;;;;0.90;0.20;;;17.40;85.00;;;;;;4874704;28;93935;-71
2023/04/28 13:06:58;;;;;;;1.88;0.28;;;17.60;85.20;;;;;;4869578;28;92228;-71
2023/04/28 13:09:24;;;;;;;1.35;0.20;;;17.70;83.30;;;;;;4867419;28;94346;-72
2023/04/28 13:11:52;;;;;;;0.90;0.20;;;17.60;83.00;;;;;;4870384;28;92726;-72
2023/04/28 13:14:21;;;;;;;2.55;0.30;;;17.60;83.20;;;;;;4869940;28;95046;-71
2023/04/28 13:16:47;;;;;;;1.15;0.30;;;17.40;83.20;;;;;;4865480;28;93674;-72
2023/04/28 13:19:13;;;;;;;1.35;0.25;;;17.40;83.00;;;;;;4874758;28;91458;-71
2023/04/28 13:21:43;;;;;;;0.85;0.20;;;17.50;84.20;;;;;;4873089;28;92796;-74
2023/04/28 13:24:09;;;;;;;1.30;0.20;;;17.60;83.20;;;;;;4875440;28;93602;-75
2023/04/28 13:26:36;;;;;;;0.70;0.15;;;17.50;81.90;;;;;;4873328;28;94983;-74
2023/04/28 13:29:03;;;;;;;0.98;0.20;;;17.50;83.00;;;;;;4875281;28;92651;-75
2023/04/28 13:31:29;;;;;;;0.98;0.10;;;17.20;83.40;;;;;;4855665;28;94789;-74
2023/04/28 13:33:56;;;;;;;0.60;0.15;;;16.90;83.80;;;;;;4874843;28;94796;-75
2023/04/28 13:36:22;;;;;;;3.50;0.20;;;16.80;85.00;;;;;;4868672;28;93760;-74
2023/04/28 13:38:48;;;;;;;0.70;0.10;;;16.60;86.00;;;;;;4868621;28;92780;-75
2023/04/28 13:41:15;;;;;;;2.15;0.20;;;16.40;85.40;;;;;;4870766;28;92850;-74
2023/04/28 13:43:40;;;;;;;2.17;0.22;;;16.10;86.30;;;;;;4877622;28;92280;-74
2023/04/28 13:46:07;;;;;;;1.88;0.22;;;16.00;87.20;;;;;;4880000;28;92161;-74
2023/04/28 13:48:38;;;;;;;0.85;0.20;;;15.80;89.00;;;;;;4871914;28;93891;-77
2023/04/28 13:51:04;;;;;;;1.27;0.35;;;15.70;90.10;;;;;;4871637;28;95949;-70
2023/04/28 13:53:30;;;;;;;5.05;0.68;;;15.80;91.50;;;;;;4876541;28;93982;-69
2023/04/28 13:55:56;;;;;;;1.88;0.30;;;16.00;92.60;;;;;;4875687;28;92512;-69
2023/04/28 13:58:26;;;;;;;2.67;0.45;;;16.10;91.70;;;;;;4882329;28;92589;-69
2023/04/28 14:00:53;;;;;;;3.47;0.40;;;16.10;92.80;;;;;;4879684;28;96820;-69
2023/04/28 14:03:22;;;;;;;2.05;0.40;;;16.10;92.70;;;;;;4880958;28;93027;-69
2023/04/28 14:05:53;;;;;;;2.60;0.30;;;16.00;93.50;;;;;;4883298;28;92313;-69
2023/04/28 14:08:19;;;;;;;2.63;0.47;;;16.10;92.70;;;;;;4897971;28;91423;-70
2023/04/28 14:10:45;;;;;;;1.52;0.32;;;16.20;92.70;;;;;;4884476;28;93269;-70
2023/04/28 14:13:11;;;;;;;2.08;0.30;;;16.40;92.20;;;;;;4880152;28;92907;-70
2023/04/28 14:15:37;;;;;;;1.02;0.20;;;16.60;92.10;;;;;;4882241;28;93081;-70
2023/04/28 14:18:03;;;;;;;2.95;0.38;;;16.80;91.70;;;;;;4875367;28;93104;-70
2023/04/28 14:20:29;;;;;;;1.08;0.10;;;16.80;91.30;;;;;;4881700;28;93664;-70
2023/04/28 14:22:55;;;;;;;2.80;0.30;;;17.00;90.60;;;;;;4869132;28;92864;-70
2023/04/28 14:25:21;;;;;;;0.80;0.17;;;17.20;90.60;;;;;;4877067;28;92509;-70
2023/04/28 14:27:48;;;;;;;1.00;0.20;;;17.20;88.70;;;;;;4877458;28;92817;-70
2023/04/28 14:30:14;;;;;;;1.20;0.20;;;17.30;89.40;;;;;;4881329;28;92733;-70
2023/04/28 14:32:40;;;;;;;2.33;0.30;;;17.30;88.10;;;;;;4873747;28;93092;-69
2023/04/28 14:35:07;;;;;;;1.13;0.20;;;17.50;87.60;;;;;;4877717;28;92447;-70
2023/04/28 14:37:33;;;;;;;0.60;0.10;;;17.60;88.30;;;;;;4878646;28;92347;-70
2023/04/28 14:40:00;;;;;;;1.25;0.15;;;17.50;86.30;;;;;;4877665;28;93860;-70
2023/04/28 14:42:30;;;;;;;0.93;0.20;;;17.40;87.10;;;;;;4877774;28;93207;-69
2023/04/28 14:44:57;;;;;;;1.08;0.20;;;17.30;86.90;;;;;;4885295;28;92863;-69
2023/04/28 14:47:23;;;;;;;0.85;0.10;;;17.10;87.80;;;;;;4876630;28;92221;-70
2023/04/28 14:49:52;;;;;;;1.98;0.20;;;17.20;89.00;;;;;;4870069;28;92804;-70
2023/04/28 14:52:18;;;;;;;0.85;0.20;;;17.30;89.10;;;;;;4878436;28;92874;-70
2023/04/28 14:54:43;;;;;;;0.85;0.10;;;17.30;88.40;;;;;;4880881;28;93562;-70
2023/04/28 14:57:47;;;;;;;1.50;0.20;;;17.40;88.90;;;;;;4877066;28;91625;-70
2023/04/28 15:00:13;;;;;;;1.15;0.20;;;17.40;86.80;;;;;;4876150;28;92720;-70
2023/04/28 15:02:39;;;;;;;2.15;0.25;;;17.50;86.70;;;;;;4873043;28;92597;-70
2023/04/28 15:05:05;;;;;;;1.10;0.30;;;17.60;86.40;;;;;;4864338;28;93311;-68
2023/04/28 15:07:33;;;;;;;3.55;0.20;;;17.60;85.40;;;;;;4870894;28;92126;-69
2023/04/28 15:09:59;;;;;;;0.90;0.20;;;17.50;87.20;;;;;;4893311;28;93273;-68
2023/04/28 15:12:25;;;;;;;1.27;0.20;;;17.70;85.10;;;;;;4878779;28;92484;-68
2023/04/28 15:14:52;;;;;;;0.95;0.30;;;17.70;85.00;;;;;;4872637;28;93414;-69
2023/04/28 15:17:19;;;;;;;1.52;0.20;;;17.50;86.30;;;;;;4881770;28;92610;-68
2023/04/28 15:19:45;;;;;;;1.23;0.20;;;17.40;85.20;;;;;;4871939;28;93303;-69
2023/04/28 15:22:11;;;;;;;2.35;0.40;;;17.20;86.40;;;;;;4876658;28;94221;-71
2023/04/28 15:24:36;;;;;;;1.25;0.20;;;17.10;86.20;;;;;;4871267;28;92895;-68
2023/04/28 15:27:02;;;;;;;2.55;0.28;;;17.10;85.20;;;;;;4873091;28;93008;-69
2023/04/28 15:29:28;;;;;;;1.00;0.20;;;17.00;88.20;;;;;;4870713;28;95388;-68
2023/04/28 15:31:55;;;;;;;0.85;0.10;;;17.00;87.60;;;;;;4878799;28;93233;-68
2023/04/28 15:34:21;;;;;;;1.27;0.20;;;17.00;88.90;;;;;;4868786;28;94039;-68
2023/04/28 15:36:47;;;;;;;1.15;0.20;;;16.90;89.50;;;;;;4872326;28;92506;-68
2023/04/28 15:39:14;;;;;;;1.05;0.22;;;16.90;89.70;;;;;;4877860;28;92824;-71
2023/04/28 15:41:40;;;;;;;2.22;0.20;;;16.90;88.70;;;;;;4868379;28;93723;-70
2023/04/28 15:44:08;;;;;;;4.43;0.20;;;16.70;89.80;;;;;;4860152;28;94651;-79
2023/04/28 15:46:35;;;;;;;1.02;0.10;;;16.60;91.10;;;;;;4872378;28;91997;-76
2023/04/28 15:49:01;;;;;;;1.65;0.20;;;16.50;90.30;;;;;;4860754;28;93608;-76
2023/04/28 15:51:27;;;;;;;1.38;0.20;;;16.40;90.90;;;;;;4855006;28;94239;-73